»·PEaware :: N316AS KSMX-KVNY

N316AS :: KSMX-KVNY

FLIGHT INFORMATION

Flight Status: Arrived
Operator: Privately registered:
United States
More flights under this callsign
Pilot: Aero Safety Training (369)
Aircraft: CESSNA 172 SKYHAWK
(C172)
More flights by this aircraft type
Origin: KSMX Santa Maria Pub/Capt Hancock
United States
Destination: KVNY Van Nuys
United States
More flights between these airports :: More routes between these airports
Route: +RZS V186 FIM
File this flight plan on PilotEdge
Remarks:
Altitude:
(Current/Filed)
5,999ft
Speed:
(Current/Filed)
120kts
Departed: 12-Mar-15 12:16 PM
Arrived: 12-Mar-15 01:09 PM
Distance/Time
Traveled:
106nm/0:53
Distance/Time
To Go:
Arrived

Flight Plot

Page will automatically refresh every two minutes.


Map Options




Map Legend


Flown Route
Filed Route
Departure Airport
Arrival Airport
Navaid (VOR, NDB)
Fix

Horizontal Profiles

Position Reports

Time Latitude Longitude Heading Altitude Ground
Speed
12-Mar-15 11:45 34.895338 -120.444903 164 264ft 0kts
12-Mar-15 11:46 34.895337 -120.444903 164 264ft 0kts
12-Mar-15 11:47 34.895336 -120.444902 164 264ft 0kts
12-Mar-15 11:48 34.895335 -120.444902 164 264ft 0kts
12-Mar-15 11:49 34.895334 -120.444902 164 264ft 0kts
12-Mar-15 11:50 34.895333 -120.444901 164 264ft 0kts
12-Mar-15 11:51 34.895332 -120.444901 164 264ft 0kts
12-Mar-15 11:52 34.895331 -120.444901 164 264ft 0kts
12-Mar-15 11:53 34.895330 -120.444900 164 264ft 0kts
12-Mar-15 11:54 34.895329 -120.444900 164 264ft 0kts
12-Mar-15 11:55 34.895328 -120.444900 164 264ft 0kts
12-Mar-15 11:56 34.895327 -120.444899 164 264ft 0kts
12-Mar-15 11:57 34.895326 -120.444899 164 264ft 0kts
12-Mar-15 11:58 34.895325 -120.444899 164 264ft 0kts
12-Mar-15 11:59 34.895324 -120.444898 164 264ft 0kts
12-Mar-15 12:00 34.895323 -120.444898 164 264ft 0kts
12-Mar-15 12:01 34.894023 -120.445271 155 264ft 3kts
12-Mar-15 12:02 34.893509 -120.445320 198 264ft 0kts
12-Mar-15 12:03 34.893508 -120.445320 198 264ft 0kts
12-Mar-15 12:04 34.893507 -120.445321 198 264ft 0kts
12-Mar-15 12:05 34.893506 -120.445321 198 264ft 0kts
12-Mar-15 12:06 34.893505 -120.445322 198 264ft 0kts
12-Mar-15 12:07 34.893504 -120.445322 198 264ft 0kts
12-Mar-15 12:08 34.893143 -120.446213 306 264ft 11kts
12-Mar-15 12:09 34.906203 -120.447890 103 868ft 93kts
12-Mar-15 12:10 34.894312 -120.421459 116 1998ft 95kts
12-Mar-15 12:11 34.882827 -120.392647 114 3110ft 87kts
12-Mar-15 12:12 34.868995 -120.366629 138 3953ft 95kts
12-Mar-15 12:13 34.852080 -120.344436 129 4743ft 89kts
12-Mar-15 12:14 34.834697 -120.319863 131 5342ft 98kts
12-Mar-15 12:15 34.814193 -120.291975 131 5868ft 119kts
12-Mar-15 12:16 34.792158 -120.261548 131 6586ft 119kts
12-Mar-15 12:17 34.769451 -120.227636 119 7013ft 147kts
12-Mar-15 12:18 34.747602 -120.180686 116 7086ft 164kts
12-Mar-15 12:19 34.723235 -120.131543 119 7026ft 165kts
12-Mar-15 12:20 34.700301 -120.086592 120 7001ft 152kts
12-Mar-15 12:21 34.676563 -120.045132 125 6996ft 146kts
12-Mar-15 12:22 34.652651 -120.005439 125 6998ft 144kts
12-Mar-15 12:23 34.632861 -119.972781 125 7004ft 143kts
12-Mar-15 12:24 34.609296 -119.933967 125 7000ft 142kts
12-Mar-15 12:25 34.584794 -119.893658 125 7013ft 158kts
12-Mar-15 12:26 34.557809 -119.849332 125 7004ft 165kts
12-Mar-15 12:27 34.530198 -119.804020 125 7002ft 167kts
12-Mar-15 12:28 34.502828 -119.758540 122 7032ft 168kts
12-Mar-15 12:29 34.475658 -119.708417 121 6970ft 154kts
12-Mar-15 12:30 34.451477 -119.663705 121 7014ft 169kts
12-Mar-15 12:31 34.424917 -119.614763 121 7001ft 177kts
12-Mar-15 12:32 34.397688 -119.564662 121 7003ft 178kts
12-Mar-15 12:33 34.370273 -119.514275 121 7000ft 179kts
12-Mar-15 12:34 34.342785 -119.463828 121 7002ft 179kts
12-Mar-15 12:35 34.316293 -119.412553 98 6989ft 176kts
12-Mar-15 12:36 34.320510 -119.354803 79 7001ft 176kts
12-Mar-15 12:37 34.325308 -119.295178 81 7000ft 179kts
12-Mar-15 12:38 34.329607 -119.235141 81 7000ft 179kts
12-Mar-15 12:39 34.333836 -119.174778 81 7000ft 179kts
12-Mar-15 12:40 34.338031 -119.114460 81 6999ft 179kts
12-Mar-15 12:41 34.342184 -119.054288 81 7000ft 180kts
12-Mar-15 12:42 34.346209 -118.995342 82 6995ft 170kts
12-Mar-15 12:43 34.350271 -118.936162 82 6947ft 184kts
12-Mar-15 12:44 34.348285 -118.879494 119 7059ft 163kts
12-Mar-15 12:45 34.357847 -118.825642 60 6733ft 174kts
12-Mar-15 12:46 34.377095 -118.770733 60 6242ft 178kts
12-Mar-15 12:47 34.396766 -118.715696 60 5743ft 175kts
12-Mar-15 12:48 34.414911 -118.667631 60 5213ft 145kts
12-Mar-15 12:49 34.433050 -118.625714 60 4997ft 127kts
12-Mar-15 12:50 34.448289 -118.592968 60 4994ft 99kts
12-Mar-15 12:51 34.462637 -118.562164 60 5013ft 109kts
12-Mar-15 12:52 34.474859 -118.530674 105 4984ft 101kts
12-Mar-15 12:53 34.452121 -118.513535 163 5057ft 95kts
12-Mar-15 12:54 34.424945 -118.509922 173 5007ft 101kts
12-Mar-15 12:55 34.396482 -118.507353 175 5005ft 105kts
12-Mar-15 12:56 34.364983 -118.503922 171 4602ft 134kts
12-Mar-15 12:57 34.325343 -118.502815 174 3839ft 148kts
12-Mar-15 12:58 34.288689 -118.497454 179 2681ft 118kts
12-Mar-15 12:59 34.258762 -118.494400 171 1846ft 108kts
12-Mar-15 13:00 34.232939 -118.493036 170 1342ft 88kts
12-Mar-15 13:01 34.210374 -118.490395 175 805ft 44kts
12-Mar-15 13:02 34.206529 -118.489491 88 805ft 3kts

Navigation Log

Ident Type
1. KSMX Airport
2. RZS Navaid
3. ZIQOR Fix
4. DEANO Fix
5. HENER Fix
6. FIM Navaid
7. KVNY Airport